Niantic, Connecticut
Current Conditions -  °F | °C
As of 7:56 PM on Thursday 18 Dec 2014 (Local Time) from KGON Reporting Station
Clear Clear  
Wind Chill: 29°   Ceiling: Unl
Heat Index: 35°   Visibility: 8mi
Dew Point: 27°   Wind: 7mph
Humidity: 72%   Direction: 290°WNW
Pressure: 29.9"   Gusts: NA
Location:  41.33°N, 72.19°W
Report Text: KGON 190056Z 29006KT 8SM CLR 02/M03 A2990 RMK AO2 SLP125 T00171028
Loading
Personal Weather Stations






























Interactive Weather Map New forecast layout! Learn more

10-Day Weather Forecast

Advertisements
Track Severe Weather on mobile